sensor_id;sensor_type;location;lat;lon;timestamp;P1;durP1;ratioP1;P2;durP2;ratioP2
65552;SDS011;52465;51.560;14.368;2022-07-29T00:00:51;1.20;;;0.88;;
65552;SDS011;52465;51.560;14.368;2022-07-29T00:03:16;0.98;;;0.80;;
65552;SDS011;52465;51.560;14.368;2022-07-29T00:05:41;1.60;;;0.80;;
65552;SDS011;52465;51.560;14.368;2022-07-29T00:08:07;1.00;;;0.70;;
65552;SDS011;52465;51.560;14.368;2022-07-29T00:10:33;1.02;;;0.80;;
65552;SDS011;52465;51.560;14.368;2022-07-29T00:12:59;1.15;;;0.90;;
65552;SDS011;52465;51.560;14.368;2022-07-29T00:15:24;1.92;;;0.90;;
65552;SDS011;52465;51.560;14.368;2022-07-29T00:17:49;1.13;;;0.70;;
65552;SDS011;52465;51.560;14.368;2022-07-29T00:20:15;1.02;;;0.90;;
65552;SDS011;52465;51.560;14.368;2022-07-29T00:22:40;0.70;;;0.70;;
65552;SDS011;52465;51.560;14.368;2022-07-29T00:25:05;1.20;;;0.95;;
65552;SDS011;52465;51.560;14.368;2022-07-29T00:27:32;1.23;;;0.80;;
65552;SDS011;52465;51.560;14.368;2022-07-29T00:29:58;1.25;;;0.98;;
65552;SDS011;52465;51.560;14.368;2022-07-29T00:32:23;0.82;;;0.77;;
65552;SDS011;52465;51.560;14.368;2022-07-29T00:34:48;1.08;;;0.82;;
65552;SDS011;52465;51.560;14.368;2022-07-29T00:37:32;1.00;;;1.00;;
65552;SDS011;52465;51.560;14.368;2022-07-29T00:39:57;1.55;;;0.90;;
65552;SDS011;52465;51.560;14.368;2022-07-29T00:42:23;1.02;;;0.90;;
65552;SDS011;52465;51.560;14.368;2022-07-29T00:44:48;0.70;;;0.70;;
65552;SDS011;52465;51.560;14.368;2022-07-29T00:47:13;1.05;;;0.90;;
65552;SDS011;52465;51.560;14.368;2022-07-29T00:49:39;1.00;;;0.77;;
65552;SDS011;52465;51.560;14.368;2022-07-29T00:52:06;1.38;;;0.80;;
65552;SDS011;52465;51.560;14.368;2022-07-29T00:54:33;1.98;;;0.90;;
65552;SDS011;52465;51.560;14.368;2022-07-29T00:56:59;1.00;;;0.70;;
65552;SDS011;52465;51.560;14.368;2022-07-29T00:59:28;1.17;;;0.80;;
65552;SDS011;52465;51.560;14.368;2022-07-29T01:01:54;0.90;;;0.80;;
65552;SDS011;52465;51.560;14.368;2022-07-29T01:04:20;1.45;;;0.73;;
65552;SDS011;52465;51.560;14.368;2022-07-29T01:06:46;1.92;;;0.98;;
65552;SDS011;52465;51.560;14.368;2022-07-29T01:09:12;1.38;;;0.80;;
65552;SDS011;52465;51.560;14.368;2022-07-29T01:11:39;0.85;;;0.80;;
65552;SDS011;52465;51.560;14.368;2022-07-29T01:14:05;1.05;;;0.82;;
65552;SDS011;52465;51.560;14.368;2022-07-29T01:16:32;1.20;;;0.90;;
65552;SDS011;52465;51.560;14.368;2022-07-29T01:19:13;1.35;;;0.90;;
65552;SDS011;52465;51.560;14.368;2022-07-29T01:21:57;0.80;;;0.80;;
65552;SDS011;52465;51.560;14.368;2022-07-29T01:30:17;1.00;;;0.90;;
65552;SDS011;52465;51.560;14.368;2022-07-29T01:32:43;1.33;;;0.85;;
65552;SDS011;52465;51.560;14.368;2022-07-29T01:35:15;2.20;;;1.05;;
65552;SDS011;52465;51.560;14.368;2022-07-29T01:37:45;0.80;;;0.80;;
65552;SDS011;52465;51.560;14.368;2022-07-29T01:42:54;0.95;;;0.70;;
65552;SDS011;52465;51.560;14.368;2022-07-29T01:45:25;1.27;;;0.80;;
65552;SDS011;52465;51.560;14.368;2022-07-29T01:48:00;1.20;;;0.85;;
65552;SDS011;52465;51.560;14.368;2022-07-29T01:50:31;1.42;;;0.80;;
65552;SDS011;52465;51.560;14.368;2022-07-29T01:53:00;0.88;;;0.70;;
65552;SDS011;52465;51.560;14.368;2022-07-29T01:55:29;1.25;;;0.85;;
65552;SDS011;52465;51.560;14.368;2022-07-29T01:57:59;1.88;;;0.98;;
65552;SDS011;52465;51.560;14.368;2022-07-29T02:00:26;0.77;;;0.75;;
65552;SDS011;52465;51.560;14.368;2022-07-29T02:02:52;1.10;;;0.93;;
65552;SDS011;52465;51.560;14.368;2022-07-29T02:05:19;2.05;;;0.90;;
65552;SDS011;52465;51.560;14.368;2022-07-29T02:07:47;1.02;;;0.75;;
65552;SDS011;52465;51.560;14.368;2022-07-29T02:10:13;1.10;;;1.00;;
65552;SDS011;52465;51.560;14.368;2022-07-29T02:12:42;0.85;;;0.75;;
65552;SDS011;52465;51.560;14.368;2022-07-29T02:15:09;1.83;;;1.10;;
65552;SDS011;52465;51.560;14.368;2022-07-29T02:17:41;1.10;;;1.00;;
65552;SDS011;52465;51.560;14.368;2022-07-29T02:20:08;1.50;;;0.90;;
65552;SDS011;52465;51.560;14.368;2022-07-29T02:22:35;1.00;;;0.80;;
65552;SDS011;52465;51.560;14.368;2022-07-29T02:25:03;2.15;;;0.90;;
65552;SDS011;52465;51.560;14.368;2022-07-29T02:27:31;0.90;;;0.90;;
65552;SDS011;52465;51.560;14.368;2022-07-29T02:29:59;0.95;;;0.90;;
65552;SDS011;52465;51.560;14.368;2022-07-29T02:32:27;1.73;;;0.80;;
65552;SDS011;52465;51.560;14.368;2022-07-29T02:34:54;0.73;;;0.73;;
65552;SDS011;52465;51.560;14.368;2022-07-29T02:37:21;1.88;;;0.93;;
65552;SDS011;52465;51.560;14.368;2022-07-29T02:39:48;1.10;;;1.00;;
65552;SDS011;52465;51.560;14.368;2022-07-29T02:42:18;1.20;;;0.90;;
65552;SDS011;52465;51.560;14.368;2022-07-29T02:44:46;1.10;;;0.80;;
65552;SDS011;52465;51.560;14.368;2022-07-29T02:50:20;1.00;;;0.82;;
65552;SDS011;52465;51.560;14.368;2022-07-29T02:52:54;1.10;;;0.93;;
65552;SDS011;52465;51.560;14.368;2022-07-29T02:55:25;1.50;;;1.10;;
65552;SDS011;52465;51.560;14.368;2022-07-29T03:00:37;1.58;;;0.80;;
65552;SDS011;52465;51.560;14.368;2022-07-29T03:03:15;1.10;;;0.95;;
65552;SDS011;52465;51.560;14.368;2022-07-29T03:05:41;1.85;;;1.00;;
65552;SDS011;52465;51.560;14.368;2022-07-29T03:08:08;0.70;;;0.70;;
65552;SDS011;52465;51.560;14.368;2022-07-29T03:10:35;1.33;;;0.93;;
65552;SDS011;52465;51.560;14.368;2022-07-29T03:13:03;1.48;;;1.00;;
65552;SDS011;52465;51.560;14.368;2022-07-29T03:15:30;1.08;;;0.98;;
65552;SDS011;52465;51.560;14.368;2022-07-29T03:17:57;1.25;;;0.85;;
65552;SDS011;52465;51.560;14.368;2022-07-29T03:20:23;1.50;;;0.80;;
65552;SDS011;52465;51.560;14.368;2022-07-29T03:22:49;1.23;;;0.95;;
65552;SDS011;52465;51.560;14.368;2022-07-29T03:25:16;1.88;;;0.90;;
65552;SDS011;52465;51.560;14.368;2022-07-29T03:27:42;2.33;;;0.90;;
65552;SDS011;52465;51.560;14.368;2022-07-29T03:30:09;1.20;;;1.10;;
65552;SDS011;52465;51.560;14.368;2022-07-29T03:32:35;1.15;;;1.02;;
65552;SDS011;52465;51.560;14.368;2022-07-29T03:35:01;0.80;;;0.77;;
65552;SDS011;52465;51.560;14.368;2022-07-29T03:37:27;1.98;;;0.90;;
65552;SDS011;52465;51.560;14.368;2022-07-29T03:39:52;1.50;;;1.10;;
65552;SDS011;52465;51.560;14.368;2022-07-29T03:42:21;1.25;;;0.95;;
65552;SDS011;52465;51.560;14.368;2022-07-29T03:44:49;0.82;;;0.75;;
65552;SDS011;52465;51.560;14.368;2022-07-29T03:47:17;1.70;;;0.80;;
65552;SDS011;52465;51.560;14.368;2022-07-29T03:49:47;1.02;;;0.80;;
65552;SDS011;52465;51.560;14.368;2022-07-29T03:52:15;1.42;;;1.00;;
65552;SDS011;52465;51.560;14.368;2022-07-29T03:54:41;0.98;;;0.88;;
65552;SDS011;52465;51.560;14.368;2022-07-29T03:57:06;1.42;;;0.82;;
65552;SDS011;52465;51.560;14.368;2022-07-29T03:59:34;1.25;;;0.93;;
65552;SDS011;52465;51.560;14.368;2022-07-29T04:02:00;0.95;;;0.90;;
65552;SDS011;52465;51.560;14.368;2022-07-29T04:04:28;1.50;;;0.95;;
65552;SDS011;52465;51.560;14.368;2022-07-29T04:06:53;1.13;;;0.98;;
65552;SDS011;52465;51.560;14.368;2022-07-29T04:09:18;1.48;;;0.95;;
65552;SDS011;52465;51.560;14.368;2022-07-29T04:11:44;1.77;;;0.95;;
65552;SDS011;52465;51.560;14.368;2022-07-29T04:14:10;1.63;;;1.02;;
65552;SDS011;52465;51.560;14.368;2022-07-29T04:16:35;1.08;;;0.93;;
65552;SDS011;52465;51.560;14.368;2022-07-29T04:19:00;1.27;;;1.10;;
65552;SDS011;52465;51.560;14.368;2022-07-29T04:21:25;1.13;;;0.82;;
65552;SDS011;52465;51.560;14.368;2022-07-29T04:23:51;2.05;;;1.05;;
65552;SDS011;52465;51.560;14.368;2022-07-29T04:26:17;1.50;;;1.00;;
65552;SDS011;52465;51.560;14.368;2022-07-29T04:28:43;1.98;;;0.90;;
65552;SDS011;52465;51.560;14.368;2022-07-29T04:31:09;1.05;;;0.90;;
65552;SDS011;52465;51.560;14.368;2022-07-29T04:33:35;0.98;;;0.80;;
65552;SDS011;52465;51.560;14.368;2022-07-29T04:36:00;1.38;;;1.00;;
65552;SDS011;52465;51.560;14.368;2022-07-29T04:38:25;1.50;;;1.13;;
65552;SDS011;52465;51.560;14.368;2022-07-29T04:40:51;2.58;;;1.13;;
65552;SDS011;52465;51.560;14.368;2022-07-29T04:43:16;1.85;;;1.08;;
65552;SDS011;52465;51.560;14.368;2022-07-29T04:45:41;1.30;;;1.00;;
65552;SDS011;52465;51.560;14.368;2022-07-29T04:48:07;1.17;;;1.00;;
65552;SDS011;52465;51.560;14.368;2022-07-29T04:50:32;1.17;;;1.00;;
65552;SDS011;52465;51.560;14.368;2022-07-29T04:52:57;1.33;;;1.08;;
65552;SDS011;52465;51.560;14.368;2022-07-29T04:55:23;1.67;;;1.05;;
65552;SDS011;52465;51.560;14.368;2022-07-29T04:57:48;1.40;;;1.30;;
65552;SDS011;52465;51.560;14.368;2022-07-29T05:00:13;1.60;;;1.00;;
65552;SDS011;52465;51.560;14.368;2022-07-29T05:02:39;1.13;;;1.00;;
65552;SDS011;52465;51.560;14.368;2022-07-29T05:05:04;1.17;;;1.00;;
65552;SDS011;52465;51.560;14.368;2022-07-29T05:07:30;1.27;;;0.90;;
65552;SDS011;52465;51.560;14.368;2022-07-29T05:09:55;1.08;;;0.93;;
65552;SDS011;52465;51.560;14.368;2022-07-29T05:12:21;1.48;;;1.38;;
65552;SDS011;52465;51.560;14.368;2022-07-29T05:14:47;1.00;;;0.90;;
65552;SDS011;52465;51.560;14.368;2022-07-29T05:17:12;1.40;;;1.05;;
65552;SDS011;52465;51.560;14.368;2022-07-29T05:19:38;1.88;;;1.00;;
65552;SDS011;52465;51.560;14.368;2022-07-29T05:22:03;1.88;;;1.25;;
65552;SDS011;52465;51.560;14.368;2022-07-29T05:24:28;1.20;;;1.10;;
65552;SDS011;52465;51.560;14.368;2022-07-29T05:26:53;1.88;;;1.10;;
65552;SDS011;52465;51.560;14.368;2022-07-29T05:29:19;1.77;;;1.10;;
65552;SDS011;52465;51.560;14.368;2022-07-29T05:31:44;1.30;;;0.93;;
65552;SDS011;52465;51.560;14.368;2022-07-29T05:34:09;1.02;;;0.93;;
65552;SDS011;52465;51.560;14.368;2022-07-29T05:36:35;1.63;;;0.93;;
65552;SDS011;52465;51.560;14.368;2022-07-29T05:39:00;1.25;;;1.00;;
65552;SDS011;52465;51.560;14.368;2022-07-29T05:41:25;2.80;;;1.10;;
65552;SDS011;52465;51.560;14.368;2022-07-29T05:43:50;2.05;;;1.00;;
65552;SDS011;52465;51.560;14.368;2022-07-29T05:46:16;1.08;;;0.98;;
65552;SDS011;52465;51.560;14.368;2022-07-29T05:48:41;2.05;;;1.00;;
65552;SDS011;52465;51.560;14.368;2022-07-29T05:51:06;1.20;;;1.10;;
65552;SDS011;52465;51.560;14.368;2022-07-29T05:53:31;1.77;;;1.10;;
65552;SDS011;52465;51.560;14.368;2022-07-29T05:55:57;2.30;;;1.17;;
65552;SDS011;52465;51.560;14.368;2022-07-29T05:58:22;1.08;;;0.98;;
65552;SDS011;52465;51.560;14.368;2022-07-29T06:00:48;1.63;;;1.10;;
65552;SDS011;52465;51.560;14.368;2022-07-29T06:03:13;1.95;;;0.90;;
65552;SDS011;52465;51.560;14.368;2022-07-29T06:05:38;1.80;;;1.00;;
65552;SDS011;52465;51.560;14.368;2022-07-29T06:08:04;1.10;;;1.00;;
65552;SDS011;52465;51.560;14.368;2022-07-29T06:10:31;1.58;;;0.98;;
65552;SDS011;52465;51.560;14.368;2022-07-29T06:12:57;0.88;;;0.70;;
65552;SDS011;52465;51.560;14.368;2022-07-29T06:15:22;2.17;;;1.02;;
65552;SDS011;52465;51.560;14.368;2022-07-29T06:17:47;2.25;;;1.10;;
65552;SDS011;52465;51.560;14.368;2022-07-29T06:20:13;1.05;;;0.90;;
65552;SDS011;52465;51.560;14.368;2022-07-29T06:22:38;1.10;;;1.00;;
65552;SDS011;52465;51.560;14.368;2022-07-29T06:25:04;1.50;;;1.05;;
65552;SDS011;52465;51.560;14.368;2022-07-29T06:27:29;1.10;;;0.90;;
65552;SDS011;52465;51.560;14.368;2022-07-29T06:29:55;1.52;;;1.10;;
65552;SDS011;52465;51.560;14.368;2022-07-29T06:32:21;1.27;;;0.80;;
65552;SDS011;52465;51.560;14.368;2022-07-29T06:34:46;0.98;;;0.90;;
65552;SDS011;52465;51.560;14.368;2022-07-29T06:37:11;1.33;;;0.98;;
65552;SDS011;52465;51.560;14.368;2022-07-29T06:39:37;1.10;;;1.00;;
65552;SDS011;52465;51.560;14.368;2022-07-29T06:42:05;1.73;;;1.00;;
65552;SDS011;52465;51.560;14.368;2022-07-29T06:44:31;1.63;;;1.00;;
65552;SDS011;52465;51.560;14.368;2022-07-29T06:46:58;0.85;;;0.82;;
65552;SDS011;52465;51.560;14.368;2022-07-29T06:49:24;1.70;;;0.90;;
65552;SDS011;52465;51.560;14.368;2022-07-29T06:51:50;1.30;;;1.05;;
65552;SDS011;52465;51.560;14.368;2022-07-29T06:54:16;1.17;;;1.08;;
65552;SDS011;52465;51.560;14.368;2022-07-29T06:56:41;1.23;;;0.95;;
65552;SDS011;52465;51.560;14.368;2022-07-29T06:59:09;1.55;;;1.10;;
65552;SDS011;52465;51.560;14.368;2022-07-29T07:01:36;1.40;;;1.00;;
65552;SDS011;52465;51.560;14.368;2022-07-29T07:04:02;1.08;;;1.00;;
65552;SDS011;52465;51.560;14.368;2022-07-29T07:06:28;0.90;;;0.80;;
65552;SDS011;52465;51.560;14.368;2022-07-29T07:08:53;1.98;;;1.00;;
65552;SDS011;52465;51.560;14.368;2022-07-29T07:11:18;1.10;;;0.98;;
65552;SDS011;52465;51.560;14.368;2022-07-29T07:13:44;1.30;;;1.20;;
65552;SDS011;52465;51.560;14.368;2022-07-29T07:16:09;1.40;;;0.98;;
65552;SDS011;52465;51.560;14.368;2022-07-29T07:18:34;2.03;;;1.10;;
65552;SDS011;52465;51.560;14.368;2022-07-29T07:21:00;1.83;;;1.00;;
65552;SDS011;52465;51.560;14.368;2022-07-29T07:23:25;1.85;;;1.10;;
65552;SDS011;52465;51.560;14.368;2022-07-29T07:25:50;2.10;;;1.27;;
65552;SDS011;52465;51.560;14.368;2022-07-29T07:28:16;1.65;;;0.90;;
65552;SDS011;52465;51.560;14.368;2022-07-29T07:30:41;1.27;;;1.00;;
65552;SDS011;52465;51.560;14.368;2022-07-29T07:33:07;1.02;;;0.93;;
65552;SDS011;52465;51.560;14.368;2022-07-29T07:35:32;3.25;;;1.20;;
65552;SDS011;52465;51.560;14.368;2022-07-29T07:37:57;1.27;;;1.02;;
65552;SDS011;52465;51.560;14.368;2022-07-29T07:40:23;1.10;;;1.00;;
65552;SDS011;52465;51.560;14.368;2022-07-29T07:42:48;1.48;;;1.10;;
65552;SDS011;52465;51.560;14.368;2022-07-29T07:45:14;1.27;;;0.90;;
65552;SDS011;52465;51.560;14.368;2022-07-29T07:47:39;1.23;;;1.10;;
65552;SDS011;52465;51.560;14.368;2022-07-29T07:50:06;1.30;;;1.10;;
65552;SDS011;52465;51.560;14.368;2022-07-29T07:52:33;1.17;;;1.08;;
65552;SDS011;52465;51.560;14.368;2022-07-29T07:54:59;1.15;;;0.88;;
65552;SDS011;52465;51.560;14.368;2022-07-29T07:57:24;1.40;;;1.10;;
65552;SDS011;52465;51.560;14.368;2022-07-29T07:59:50;1.55;;;0.90;;
65552;SDS011;52465;51.560;14.368;2022-07-29T08:02:15;2.70;;;0.90;;
65552;SDS011;52465;51.560;14.368;2022-07-29T08:04:40;1.40;;;1.10;;
65552;SDS011;52465;51.560;14.368;2022-07-29T08:07:06;1.50;;;1.00;;
65552;SDS011;52465;51.560;14.368;2022-07-29T08:09:33;1.58;;;0.90;;
65552;SDS011;52465;51.560;14.368;2022-07-29T08:11:59;1.10;;;1.00;;
65552;SDS011;52465;51.560;14.368;2022-07-29T08:14:24;1.13;;;1.02;;
65552;SDS011;52465;51.560;14.368;2022-07-29T08:16:50;1.48;;;1.00;;
65552;SDS011;52465;51.560;14.368;2022-07-29T08:19:16;1.33;;;1.00;;
65552;SDS011;52465;51.560;14.368;2022-07-29T08:21:41;1.58;;;1.00;;
65552;SDS011;52465;51.560;14.368;2022-07-29T08:24:06;1.30;;;1.02;;
65552;SDS011;52465;51.560;14.368;2022-07-29T08:26:50;3.15;;;1.10;;
65552;SDS011;52465;51.560;14.368;2022-07-29T08:29:15;1.25;;;1.10;;
65552;SDS011;52465;51.560;14.368;2022-07-29T08:31:41;1.70;;;1.10;;
65552;SDS011;52465;51.560;14.368;2022-07-29T08:34:06;1.00;;;0.90;;
65552;SDS011;52465;51.560;14.368;2022-07-29T08:36:32;1.90;;;1.15;;
65552;SDS011;52465;51.560;14.368;2022-07-29T08:38:58;4.72;;;1.33;;
65552;SDS011;52465;51.560;14.368;2022-07-29T08:41:24;4.00;;;1.17;;
65552;SDS011;52465;51.560;14.368;2022-07-29T08:43:50;4.13;;;1.33;;
65552;SDS011;52465;51.560;14.368;2022-07-29T08:46:17;2.95;;;1.10;;
65552;SDS011;52465;51.560;14.368;2022-07-29T08:48:43;2.72;;;1.10;;
65552;SDS011;52465;51.560;14.368;2022-07-29T08:51:12;1.90;;;1.00;;
65552;SDS011;52465;51.560;14.368;2022-07-29T08:53:40;1.10;;;1.00;;
65552;SDS011;52465;51.560;14.368;2022-07-29T08:56:07;1.67;;;1.15;;
65552;SDS011;52465;51.560;14.368;2022-07-29T08:58:36;2.03;;;1.27;;
65552;SDS011;52465;51.560;14.368;2022-07-29T09:01:02;1.60;;;1.02;;
65552;SDS011;52465;51.560;14.368;2022-07-29T09:03:32;1.90;;;1.20;;
65552;SDS011;52465;51.560;14.368;2022-07-29T09:05:59;1.15;;;1.05;;
65552;SDS011;52465;51.560;14.368;2022-07-29T09:08:26;2.38;;;1.20;;
65552;SDS011;52465;51.560;14.368;2022-07-29T09:10:53;1.50;;;1.05;;
65552;SDS011;52465;51.560;14.368;2022-07-29T09:13:18;2.38;;;1.10;;
65552;SDS011;52465;51.560;14.368;2022-07-29T09:15:44;1.20;;;1.10;;
65552;SDS011;52465;51.560;14.368;2022-07-29T09:18:10;2.20;;;1.10;;
65552;SDS011;52465;51.560;14.368;2022-07-29T09:20:35;1.88;;;1.48;;
65552;SDS011;52465;51.560;14.368;2022-07-29T09:23:19;1.35;;;1.20;;
65552;SDS011;52465;51.560;14.368;2022-07-29T09:25:44;1.55;;;1.30;;
65552;SDS011;52465;51.560;14.368;2022-07-29T09:28:10;1.27;;;0.90;;
65552;SDS011;52465;51.560;14.368;2022-07-29T09:30:49;1.23;;;1.00;;
65552;SDS011;52465;51.560;14.368;2022-07-29T09:33:17;1.25;;;1.10;;
65552;SDS011;52465;51.560;14.368;2022-07-29T09:35:42;3.00;;;1.13;;
65552;SDS011;52465;51.560;14.368;2022-07-29T09:38:11;1.58;;;1.10;;
65552;SDS011;52465;51.560;14.368;2022-07-29T09:40:37;2.20;;;1.23;;
65552;SDS011;52465;51.560;14.368;2022-07-29T09:43:12;2.30;;;1.10;;
65552;SDS011;52465;51.560;14.368;2022-07-29T09:45:38;1.20;;;1.10;;
65552;SDS011;52465;51.560;14.368;2022-07-29T09:48:15;1.00;;;1.00;;
65552;SDS011;52465;51.560;14.368;2022-07-29T09:50:43;2.33;;;1.10;;
65552;SDS011;52465;51.560;14.368;2022-07-29T09:53:09;1.27;;;1.00;;
65552;SDS011;52465;51.560;14.368;2022-07-29T09:55:48;1.40;;;1.20;;
65552;SDS011;52465;51.560;14.368;2022-07-29T09:58:18;2.30;;;1.60;;
65552;SDS011;52465;51.560;14.368;2022-07-29T10:00:45;2.65;;;1.55;;
65552;SDS011;52465;51.560;14.368;2022-07-29T10:03:12;1.88;;;1.52;;
65552;SDS011;52465;51.560;14.368;2022-07-29T10:05:38;2.05;;;1.30;;
65552;SDS011;52465;51.560;14.368;2022-07-29T10:08:04;3.38;;;1.80;;
65552;SDS011;52465;51.560;14.368;2022-07-29T10:10:31;4.45;;;2.00;;
65552;SDS011;52465;51.560;14.368;2022-07-29T10:12:59;3.15;;;1.70;;
65552;SDS011;52465;51.560;14.368;2022-07-29T10:15:28;4.82;;;1.77;;
65552;SDS011;52465;51.560;14.368;2022-07-29T10:17:57;3.08;;;1.80;;
65552;SDS011;52465;51.560;14.368;2022-07-29T10:20:23;5.75;;;2.20;;
65552;SDS011;52465;51.560;14.368;2022-07-29T10:22:49;2.33;;;1.77;;
65552;SDS011;52465;51.560;14.368;2022-07-29T10:25:15;3.78;;;2.03;;
65552;SDS011;52465;51.560;14.368;2022-07-29T10:27:41;4.63;;;2.10;;
65552;SDS011;52465;51.560;14.368;2022-07-29T10:30:08;3.75;;;2.40;;
65552;SDS011;52465;51.560;14.368;2022-07-29T10:32:40;5.45;;;2.30;;
65552;SDS011;52465;51.560;14.368;2022-07-29T10:35:35;3.15;;;2.20;;
65552;SDS011;52465;51.560;14.368;2022-07-29T10:43:53;5.20;;;2.00;;
65552;SDS011;52465;51.560;14.368;2022-07-29T10:46:21;3.53;;;2.15;;
65552;SDS011;52465;51.560;14.368;2022-07-29T10:54:18;2.40;;;1.85;;
65552;SDS011;52465;51.560;14.368;2022-07-29T10:56:44;5.53;;;1.92;;
65552;SDS011;52465;51.560;14.368;2022-07-29T11:01:47;6.22;;;2.00;;
65552;SDS011;52465;51.560;14.368;2022-07-29T11:04:14;2.65;;;2.10;;
65552;SDS011;52465;51.560;14.368;2022-07-29T11:09:23;5.57;;;2.00;;
65552;SDS011;52465;51.560;14.368;2022-07-29T11:11:48;2.75;;;2.20;;
65552;SDS011;52465;51.560;14.368;2022-07-29T11:14:14;3.42;;;2.17;;
65552;SDS011;52465;51.560;14.368;2022-07-29T11:16:57;2.85;;;2.33;;
65552;SDS011;52465;51.560;14.368;2022-07-29T11:19:29;11.52;;;2.25;;
65552;SDS011;52465;51.560;14.368;2022-07-29T11:21:55;10.73;;;2.13;;
65552;SDS011;52465;51.560;14.368;2022-07-29T11:24:22;4.47;;;2.13;;
65552;SDS011;52465;51.560;14.368;2022-07-29T11:27:08;3.25;;;1.88;;
65552;SDS011;52465;51.560;14.368;2022-07-29T11:29:52;3.55;;;2.10;;
65552;SDS011;52465;51.560;14.368;2022-07-29T11:32:19;3.72;;;1.92;;
65552;SDS011;52465;51.560;14.368;2022-07-29T11:34:47;2.78;;;1.70;;
65552;SDS011;52465;51.560;14.368;2022-07-29T11:37:16;2.92;;;1.77;;
65552;SDS011;52465;51.560;14.368;2022-07-29T11:39:47;2.10;;;1.80;;
65552;SDS011;52465;51.560;14.368;2022-07-29T11:47:27;3.92;;;1.80;;
65552;SDS011;52465;51.560;14.368;2022-07-29T11:49:54;6.35;;;2.05;;
65552;SDS011;52465;51.560;14.368;2022-07-29T11:52:22;2.47;;;2.00;;
65552;SDS011;52465;51.560;14.368;2022-07-29T11:54:48;4.32;;;2.10;;
65552;SDS011;52465;51.560;14.368;2022-07-29T11:57:16;3.63;;;2.42;;
65552;SDS011;52465;51.560;14.368;2022-07-29T11:59:43;2.17;;;1.75;;
65552;SDS011;52465;51.560;14.368;2022-07-29T12:02:10;3.22;;;2.10;;
65552;SDS011;52465;51.560;14.368;2022-07-29T12:04:51;2.28;;;1.80;;
65552;SDS011;52465;51.560;14.368;2022-07-29T12:07:18;3.03;;;2.03;;
65552;SDS011;52465;51.560;14.368;2022-07-29T12:09:51;2.95;;;1.95;;
65552;SDS011;52465;51.560;14.368;2022-07-29T12:12:17;3.10;;;1.70;;
65552;SDS011;52465;51.560;14.368;2022-07-29T12:14:43;2.55;;;1.88;;
65552;SDS011;52465;51.560;14.368;2022-07-29T12:17:24;3.30;;;1.60;;
65552;SDS011;52465;51.560;14.368;2022-07-29T12:19:54;3.28;;;1.90;;
65552;SDS011;52465;51.560;14.368;2022-07-29T12:22:30;1.85;;;1.75;;
65552;SDS011;52465;51.560;14.368;2022-07-29T12:25:02;1.92;;;1.75;;
65552;SDS011;52465;51.560;14.368;2022-07-29T12:27:28;4.30;;;2.30;;
65552;SDS011;52465;51.560;14.368;2022-07-29T12:29:55;2.55;;;1.83;;
65552;SDS011;52465;51.560;14.368;2022-07-29T12:32:22;3.90;;;1.95;;
65552;SDS011;52465;51.560;14.368;2022-07-29T12:34:48;3.25;;;1.90;;
65552;SDS011;52465;51.560;14.368;2022-07-29T12:37:14;3.60;;;1.95;;
65552;SDS011;52465;51.560;14.368;2022-07-29T12:39:39;4.00;;;2.00;;
65552;SDS011;52465;51.560;14.368;2022-07-29T12:42:17;3.40;;;2.10;;
65552;SDS011;52465;51.560;14.368;2022-07-29T12:44:45;3.35;;;2.00;;
65552;SDS011;52465;51.560;14.368;2022-07-29T12:47:12;2.88;;;2.30;;
65552;SDS011;52465;51.560;14.368;2022-07-29T12:49:37;3.03;;;2.00;;
65552;SDS011;52465;51.560;14.368;2022-07-29T12:52:22;3.70;;;2.40;;
65552;SDS011;52465;51.560;14.368;2022-07-29T12:54:48;2.65;;;2.17;;
65552;SDS011;52465;51.560;14.368;2022-07-29T12:57:13;3.55;;;2.10;;
65552;SDS011;52465;51.560;14.368;2022-07-29T12:59:39;2.53;;;2.33;;
65552;SDS011;52465;51.560;14.368;2022-07-29T13:02:04;3.38;;;2.30;;
65552;SDS011;52465;51.560;14.368;2022-07-29T13:04:30;4.07;;;2.50;;
65552;SDS011;52465;51.560;14.368;2022-07-29T13:06:57;4.72;;;2.30;;
65552;SDS011;52465;51.560;14.368;2022-07-29T13:09:35;2.40;;;2.10;;
65552;SDS011;52465;51.560;14.368;2022-07-29T13:12:06;2.75;;;2.17;;
65552;SDS011;52465;51.560;14.368;2022-07-29T13:14:38;3.95;;;2.17;;
65552;SDS011;52465;51.560;14.368;2022-07-29T13:17:06;3.42;;;2.40;;
65552;SDS011;52465;51.560;14.368;2022-07-29T13:19:37;2.50;;;1.98;;
65552;SDS011;52465;51.560;14.368;2022-07-29T13:22:19;2.83;;;2.47;;
65552;SDS011;52465;51.560;14.368;2022-07-29T13:24:54;2.72;;;1.98;;
65552;SDS011;52465;51.560;14.368;2022-07-29T13:27:22;3.30;;;2.20;;
65552;SDS011;52465;51.560;14.368;2022-07-29T13:29:49;2.60;;;2.22;;
65552;SDS011;52465;51.560;14.368;2022-07-29T13:32:18;3.90;;;2.35;;
65552;SDS011;52465;51.560;14.368;2022-07-29T13:34:44;3.65;;;2.20;;
65552;SDS011;52465;51.560;14.368;2022-07-29T13:37:09;3.30;;;2.22;;
65552;SDS011;52465;51.560;14.368;2022-07-29T13:39:35;3.05;;;1.90;;
65552;SDS011;52465;51.560;14.368;2022-07-29T13:42:00;4.05;;;2.35;;
65552;SDS011;52465;51.560;14.368;2022-07-29T13:44:25;3.95;;;2.17;;
65552;SDS011;52465;51.560;14.368;2022-07-29T13:46:51;2.70;;;2.05;;
65552;SDS011;52465;51.560;14.368;2022-07-29T13:49:16;3.00;;;2.10;;
65552;SDS011;52465;51.560;14.368;2022-07-29T13:51:42;2.15;;;1.80;;
65552;SDS011;52465;51.560;14.368;2022-07-29T13:54:07;4.07;;;2.22;;
65552;SDS011;52465;51.560;14.368;2022-07-29T13:56:32;4.40;;;2.60;;
65552;SDS011;52465;51.560;14.368;2022-07-29T13:58:57;4.70;;;2.30;;
65552;SDS011;52465;51.560;14.368;2022-07-29T14:01:23;3.40;;;2.45;;
65552;SDS011;52465;51.560;14.368;2022-07-29T14:03:48;2.83;;;2.40;;
65552;SDS011;52465;51.560;14.368;2022-07-29T14:06:14;3.60;;;2.47;;
65552;SDS011;52465;51.560;14.368;2022-07-29T14:08:39;2.70;;;2.40;;
65552;SDS011;52465;51.560;14.368;2022-07-29T14:11:05;5.20;;;2.50;;
65552;SDS011;52465;51.560;14.368;2022-07-29T14:13:32;3.75;;;2.60;;
65552;SDS011;52465;51.560;14.368;2022-07-29T14:15:57;2.90;;;2.47;;
65552;SDS011;52465;51.560;14.368;2022-07-29T14:18:22;4.32;;;2.72;;
65552;SDS011;52465;51.560;14.368;2022-07-29T14:20:47;5.13;;;2.50;;
65552;SDS011;52465;51.560;14.368;2022-07-29T14:23:13;4.60;;;2.78;;
65552;SDS011;52465;51.560;14.368;2022-07-29T14:25:38;3.92;;;3.45;;
65552;SDS011;52465;51.560;14.368;2022-07-29T14:28:04;3.03;;;2.10;;
65552;SDS011;52465;51.560;14.368;2022-07-29T14:30:29;2.95;;;2.38;;
65552;SDS011;52465;51.560;14.368;2022-07-29T14:32:54;3.55;;;2.08;;
65552;SDS011;52465;51.560;14.368;2022-07-29T14:35:19;4.32;;;2.30;;
65552;SDS011;52465;51.560;14.368;2022-07-29T14:37:45;2.72;;;2.30;;
65552;SDS011;52465;51.560;14.368;2022-07-29T14:40:10;2.53;;;2.28;;
65552;SDS011;52465;51.560;14.368;2022-07-29T14:42:39;3.80;;;2.35;;
65552;SDS011;52465;51.560;14.368;2022-07-29T14:45:05;3.47;;;2.50;;
65552;SDS011;52465;51.560;14.368;2022-07-29T14:47:31;3.10;;;2.20;;
65552;SDS011;52465;51.560;14.368;2022-07-29T14:49:57;3.80;;;2.20;;
65552;SDS011;52465;51.560;14.368;2022-07-29T14:52:22;3.10;;;2.42;;
65552;SDS011;52465;51.560;14.368;2022-07-29T14:54:47;3.05;;;2.60;;
65552;SDS011;52465;51.560;14.368;2022-07-29T14:57:12;2.38;;;2.17;;
65552;SDS011;52465;51.560;14.368;2022-07-29T14:59:38;3.97;;;2.42;;
65552;SDS011;52465;51.560;14.368;2022-07-29T15:02:03;3.85;;;2.80;;
65552;SDS011;52465;51.560;14.368;2022-07-29T15:04:28;2.72;;;2.45;;
65552;SDS011;52465;51.560;14.368;2022-07-29T15:06:53;2.75;;;2.45;;
65552;SDS011;52465;51.560;14.368;2022-07-29T15:09:19;3.78;;;2.45;;